sensor_id;sensor_type;location;lat;lon;timestamp;pressure;altitude;pressure_sealevel;temperature;humidity
64628;BME280;68467;50.960;0.314;2024-03-08T00:01:36;99576.51;;;7.00;100.00
64628;BME280;68467;50.960;0.314;2024-03-08T00:04:04;99575.07;;;7.32;100.00
64628;BME280;68467;50.960;0.314;2024-03-08T00:06:32;99578.04;;;6.26;100.00
64628;BME280;68467;50.960;0.314;2024-03-08T00:09:00;99570.51;;;6.78;100.00
64628;BME280;68467;50.960;0.314;2024-03-08T00:11:27;99568.78;;;6.84;100.00
64628;BME280;68467;50.960;0.314;2024-03-08T00:13:55;99568.42;;;6.29;100.00
64628;BME280;68467;50.960;0.314;2024-03-08T00:16:23;99560.01;;;6.70;100.00
64628;BME280;68467;50.960;0.314;2024-03-08T00:18:50;99558.68;;;6.57;100.00
64628;BME280;68467;50.960;0.314;2024-03-08T00:21:19;99553.07;;;5.69;100.00
64628;BME280;68467;50.960;0.314;2024-03-08T00:23:46;99552.67;;;6.24;100.00
64628;BME280;68467;50.960;0.314;2024-03-08T00:26:14;99547.83;;;6.61;100.00
64628;BME280;68467;50.960;0.314;2024-03-08T00:28:42;99548.65;;;5.82;100.00
64628;BME280;68467;50.960;0.314;2024-03-08T00:31:12;99549.49;;;6.16;100.00
64628;BME280;68467;50.960;0.314;2024-03-08T00:33:39;99546.39;;;6.66;100.00
64628;BME280;68467;50.960;0.314;2024-03-08T00:36:06;99545.23;;;6.33;100.00
64628;BME280;68467;50.960;0.314;2024-03-08T00:38:34;99541.86;;;6.05;100.00
64628;BME280;68467;50.960;0.314;2024-03-08T00:41:02;99544.84;;;6.51;100.00
64628;BME280;68467;50.960;0.314;2024-03-08T00:43:29;99545.19;;;5.98;100.00
64628;BME280;68467;50.960;0.314;2024-03-08T00:45:56;99540.68;;;6.16;100.00
64628;BME280;68467;50.960;0.314;2024-03-08T00:48:23;99541.17;;;5.59;100.00
64628;BME280;68467;50.960;0.314;2024-03-08T00:50:50;99539.58;;;5.18;100.00
64628;BME280;68467;50.960;0.314;2024-03-08T00:53:19;99537.62;;;5.68;100.00
64628;BME280;68467;50.960;0.314;2024-03-08T00:55:47;99539.14;;;6.36;100.00
64628;BME280;68467;50.960;0.314;2024-03-08T00:58:14;99531.43;;;6.51;100.00
64628;BME280;68467;50.960;0.314;2024-03-08T01:00:42;99530.31;;;5.91;100.00
64628;BME280;68467;50.960;0.314;2024-03-08T01:03:08;99525.93;;;5.98;100.00
64628;BME280;68467;50.960;0.314;2024-03-08T01:05:35;99527.14;;;5.24;100.00
64628;BME280;68467;50.960;0.314;2024-03-08T01:08:04;99525.31;;;5.34;100.00
64628;BME280;68467;50.960;0.314;2024-03-08T01:10:30;99522.43;;;5.81;100.00
64628;BME280;68467;50.960;0.314;2024-03-08T01:12:58;99518.51;;;5.57;100.00
64628;BME280;68467;50.960;0.314;2024-03-08T01:15:25;99511.78;;;6.16;100.00
64628;BME280;68467;50.960;0.314;2024-03-08T01:17:53;99505.85;;;6.54;100.00
64628;BME280;68467;50.960;0.314;2024-03-08T01:20:21;99502.75;;;5.61;100.00
64628;BME280;68467;50.960;0.314;2024-03-08T01:22:48;99499.12;;;5.77;100.00
64628;BME280;68467;50.960;0.314;2024-03-08T01:25:15;99491.49;;;6.37;100.00
64628;BME280;68467;50.960;0.314;2024-03-08T01:27:43;99493.65;;;5.48;100.00
64628;BME280;68467;50.960;0.314;2024-03-08T01:30:11;99486.90;;;6.50;100.00
64628;BME280;68467;50.960;0.314;2024-03-08T01:32:39;99483.95;;;6.06;100.00
64628;BME280;68467;50.960;0.314;2024-03-08T01:35:07;99478.92;;;6.29;100.00
64628;BME280;68467;50.960;0.314;2024-03-08T01:37:34;99479.64;;;5.79;100.00
64628;BME280;68467;50.960;0.314;2024-03-08T01:40:01;99475.85;;;7.04;100.00
64628;BME280;68467;50.960;0.314;2024-03-08T01:42:29;99474.83;;;5.94;100.00
64628;BME280;68467;50.960;0.314;2024-03-08T01:44:57;99467.85;;;6.89;100.00
64628;BME280;68467;50.960;0.314;2024-03-08T01:47:25;99461.49;;;6.93;100.00
64628;BME280;68467;50.960;0.314;2024-03-08T01:49:52;99461.12;;;6.43;100.00
64628;BME280;68467;50.960;0.314;2024-03-08T01:52:20;99458.71;;;5.82;100.00
64628;BME280;68467;50.960;0.314;2024-03-08T01:54:47;99454.84;;;6.86;100.00
64628;BME280;68467;50.960;0.314;2024-03-08T01:57:15;99452.30;;;6.72;100.00
64628;BME280;68467;50.960;0.314;2024-03-08T01:59:43;99451.99;;;5.95;100.00
64628;BME280;68467;50.960;0.314;2024-03-08T02:02:11;99448.73;;;5.72;100.00
64628;BME280;68467;50.960;0.314;2024-03-08T02:04:42;99442.82;;;5.80;100.00
64628;BME280;68467;50.960;0.314;2024-03-08T02:07:09;99437.44;;;6.52;100.00
64628;BME280;68467;50.960;0.314;2024-03-08T02:09:37;99431.72;;;7.11;100.00
64628;BME280;68467;50.960;0.314;2024-03-08T02:12:05;99430.99;;;6.09;100.00
64628;BME280;68467;50.960;0.314;2024-03-08T02:14:34;99429.54;;;6.23;100.00
64628;BME280;68467;50.960;0.314;2024-03-08T02:17:01;99420.50;;;6.86;100.00
64628;BME280;68467;50.960;0.314;2024-03-08T02:19:29;99418.24;;;7.12;100.00
64628;BME280;68467;50.960;0.314;2024-03-08T02:21:57;99411.95;;;6.64;100.00
64628;BME280;68467;50.960;0.314;2024-03-08T02:24:24;99409.72;;;6.05;100.00
64628;BME280;68467;50.960;0.314;2024-03-08T02:26:52;99402.65;;;6.35;100.00
64628;BME280;68467;50.960;0.314;2024-03-08T02:29:20;99396.63;;;7.29;100.00
64628;BME280;68467;50.960;0.314;2024-03-08T02:31:51;99396.57;;;5.69;100.00
64628;BME280;68467;50.960;0.314;2024-03-08T02:34:18;99392.80;;;5.52;100.00
64628;BME280;68467;50.960;0.314;2024-03-08T02:36:46;99383.32;;;6.18;100.00
64628;BME280;68467;50.960;0.314;2024-03-08T02:39:13;99378.83;;;6.40;100.00
64628;BME280;68467;50.960;0.314;2024-03-08T02:41:40;99374.67;;;6.01;100.00
64628;BME280;68467;50.960;0.314;2024-03-08T02:44:07;99367.81;;;6.48;100.00
64628;BME280;68467;50.960;0.314;2024-03-08T02:46:34;99365.33;;;6.78;100.00
64628;BME280;68467;50.960;0.314;2024-03-08T02:49:02;99367.35;;;5.52;100.00
64628;BME280;68467;50.960;0.314;2024-03-08T02:51:29;99365.69;;;6.73;100.00
64628;BME280;68467;50.960;0.314;2024-03-08T02:53:57;99361.01;;;6.10;100.00
64628;BME280;68467;50.960;0.314;2024-03-08T02:56:25;99361.17;;;6.46;100.00
64628;BME280;68467;50.960;0.314;2024-03-08T02:58:52;99362.24;;;6.64;100.00
64628;BME280;68467;50.960;0.314;2024-03-08T03:01:20;99358.13;;;6.60;100.00
64628;BME280;68467;50.960;0.314;2024-03-08T03:03:48;99353.20;;;6.66;100.00
64628;BME280;68467;50.960;0.314;2024-03-08T03:06:15;99352.31;;;7.11;100.00
64628;BME280;68467;50.960;0.314;2024-03-08T03:08:43;99348.31;;;5.81;100.00
64628;BME280;68467;50.960;0.314;2024-03-08T03:11:10;99349.50;;;5.65;100.00
64628;BME280;68467;50.960;0.314;2024-03-08T03:13:37;99344.59;;;5.47;100.00
64628;BME280;68467;50.960;0.314;2024-03-08T03:16:05;99340.57;;;6.09;100.00
64628;BME280;68467;50.960;0.314;2024-03-08T03:18:32;99335.35;;;6.56;100.00
64628;BME280;68467;50.960;0.314;2024-03-08T03:20:59;99332.11;;;5.74;100.00
64628;BME280;68467;50.960;0.314;2024-03-08T03:23:25;99325.77;;;5.44;100.00
64628;BME280;68467;50.960;0.314;2024-03-08T03:25:53;99318.96;;;5.88;100.00
64628;BME280;68467;50.960;0.314;2024-03-08T03:28:20;99312.25;;;6.02;100.00
64628;BME280;68467;50.960;0.314;2024-03-08T03:30:48;99315.18;;;5.79;100.00
64628;BME280;68467;50.960;0.314;2024-03-08T03:33:15;99311.01;;;5.78;100.00
64628;BME280;68467;50.960;0.314;2024-03-08T03:35:43;99309.21;;;6.55;100.00
64628;BME280;68467;50.960;0.314;2024-03-08T03:38:11;99305.23;;;6.21;100.00
64628;BME280;68467;50.960;0.314;2024-03-08T03:40:39;99300.10;;;5.97;100.00
64628;BME280;68467;50.960;0.314;2024-03-08T03:43:07;99301.01;;;6.05;100.00
64628;BME280;68467;50.960;0.314;2024-03-08T03:45:34;99298.68;;;6.21;100.00
64628;BME280;68467;50.960;0.314;2024-03-08T03:48:02;99298.55;;;6.26;100.00
64628;BME280;68467;50.960;0.314;2024-03-08T03:50:30;99292.95;;;6.34;100.00
64628;BME280;68467;50.960;0.314;2024-03-08T03:52:57;99293.28;;;5.83;100.00
64628;BME280;68467;50.960;0.314;2024-03-08T03:55:24;99286.06;;;6.13;100.00
64628;BME280;68467;50.960;0.314;2024-03-08T03:57:52;99278.26;;;6.27;100.00
64628;BME280;68467;50.960;0.314;2024-03-08T04:00:20;99280.05;;;5.76;100.00
64628;BME280;68467;50.960;0.314;2024-03-08T04:02:48;99276.71;;;5.45;100.00
64628;BME280;68467;50.960;0.314;2024-03-08T04:05:15;99274.95;;;4.75;100.00
64628;BME280;68467;50.960;0.314;2024-03-08T04:07:41;99271.88;;;4.95;100.00
64628;BME280;68467;50.960;0.314;2024-03-08T04:10:11;99266.43;;;5.34;100.00
64628;BME280;68467;50.960;0.314;2024-03-08T04:12:38;99267.81;;;5.24;100.00
64628;BME280;68467;50.960;0.314;2024-03-08T04:15:06;99262.92;;;5.00;100.00
64628;BME280;68467;50.960;0.314;2024-03-08T04:17:33;99256.11;;;4.44;100.00
64628;BME280;68467;50.960;0.314;2024-03-08T04:20:01;99250.04;;;4.58;100.00
64628;BME280;68467;50.960;0.314;2024-03-08T04:22:28;99246.99;;;4.58;100.00
64628;BME280;68467;50.960;0.314;2024-03-08T04:24:55;99252.62;;;3.48;100.00
64628;BME280;68467;50.960;0.314;2024-03-08T04:27:23;99253.33;;;3.81;100.00
64628;BME280;68467;50.960;0.314;2024-03-08T04:29:50;99246.40;;;4.54;100.00
64628;BME280;68467;50.960;0.314;2024-03-08T04:32:17;99242.93;;;4.75;100.00
64628;BME280;68467;50.960;0.314;2024-03-08T04:34:44;99237.55;;;5.04;100.00
64628;BME280;68467;50.960;0.314;2024-03-08T04:37:11;99228.81;;;5.15;100.00
64628;BME280;68467;50.960;0.314;2024-03-08T04:39:39;99231.07;;;5.42;100.00
64628;BME280;68467;50.960;0.314;2024-03-08T04:42:06;99232.24;;;5.11;100.00
64628;BME280;68467;50.960;0.314;2024-03-08T04:44:34;99231.12;;;4.93;100.00
64628;BME280;68467;50.960;0.314;2024-03-08T04:47:02;99223.98;;;4.55;100.00
64628;BME280;68467;50.960;0.314;2024-03-08T04:49:29;99215.09;;;5.43;100.00
64628;BME280;68467;50.960;0.314;2024-03-08T04:51:56;99213.94;;;5.06;100.00
64628;BME280;68467;50.960;0.314;2024-03-08T04:54:23;99211.00;;;5.33;100.00
64628;BME280;68467;50.960;0.314;2024-03-08T04:56:50;99212.36;;;4.84;100.00
64628;BME280;68467;50.960;0.314;2024-03-08T04:59:18;99211.03;;;4.74;100.00
64628;BME280;68467;50.960;0.314;2024-03-08T05:01:45;99206.31;;;4.69;100.00
64628;BME280;68467;50.960;0.314;2024-03-08T05:04:13;99198.97;;;5.50;100.00
64628;BME280;68467;50.960;0.314;2024-03-08T05:06:41;99198.52;;;5.03;100.00
64628;BME280;68467;50.960;0.314;2024-03-08T05:09:08;99191.97;;;4.76;100.00
64628;BME280;68467;50.960;0.314;2024-03-08T05:11:34;99195.17;;;4.86;100.00
64628;BME280;68467;50.960;0.314;2024-03-08T05:14:02;99183.92;;;5.40;100.00
64628;BME280;68467;50.960;0.314;2024-03-08T05:16:29;99177.35;;;5.15;100.00
64628;BME280;68467;50.960;0.314;2024-03-08T05:18:57;99176.81;;;4.68;100.00
64628;BME280;68467;50.960;0.314;2024-03-08T05:21:25;99170.74;;;4.48;100.00
64628;BME280;68467;50.960;0.314;2024-03-08T05:23:52;99172.38;;;4.80;100.00
64628;BME280;68467;50.960;0.314;2024-03-08T05:26:19;99172.18;;;4.05;100.00
64628;BME280;68467;50.960;0.314;2024-03-08T05:28:46;99172.55;;;4.56;100.00
64628;BME280;68467;50.960;0.314;2024-03-08T05:31:19;99165.75;;;4.71;100.00
64628;BME280;68467;50.960;0.314;2024-03-08T05:33:46;99169.81;;;4.57;100.00
64628;BME280;68467;50.960;0.314;2024-03-08T05:36:13;99161.01;;;4.88;100.00
64628;BME280;68467;50.960;0.314;2024-03-08T05:38:41;99157.77;;;4.47;100.00
64628;BME280;68467;50.960;0.314;2024-03-08T05:41:08;99154.94;;;4.71;100.00
64628;BME280;68467;50.960;0.314;2024-03-08T05:43:35;99157.25;;;4.56;100.00
64628;BME280;68467;50.960;0.314;2024-03-08T05:46:02;99155.89;;;4.79;100.00
64628;BME280;68467;50.960;0.314;2024-03-08T05:48:30;99162.18;;;4.50;100.00
64628;BME280;68467;50.960;0.314;2024-03-08T05:50:57;99158.69;;;4.59;100.00
64628;BME280;68467;50.960;0.314;2024-03-08T05:53:24;99152.27;;;4.80;100.00
64628;BME280;68467;50.960;0.314;2024-03-08T05:55:51;99148.66;;;4.65;100.00
64628;BME280;68467;50.960;0.314;2024-03-08T05:58:19;99150.53;;;5.16;100.00
64628;BME280;68467;50.960;0.314;2024-03-08T06:00:46;99146.38;;;5.65;100.00
64628;BME280;68467;50.960;0.314;2024-03-08T06:03:14;99140.19;;;5.14;100.00
64628;BME280;68467;50.960;0.314;2024-03-08T06:05:41;99138.56;;;5.53;100.00
64628;BME280;68467;50.960;0.314;2024-03-08T06:08:09;99133.11;;;4.92;100.00
64628;BME280;68467;50.960;0.314;2024-03-08T06:10:36;99134.65;;;4.06;100.00
64628;BME280;68467;50.960;0.314;2024-03-08T06:13:04;99131.68;;;4.84;100.00
64628;BME280;68467;50.960;0.314;2024-03-08T06:15:32;99129.28;;;4.74;100.00
64628;BME280;68467;50.960;0.314;2024-03-08T06:17:58;99129.09;;;4.90;100.00
64628;BME280;68467;50.960;0.314;2024-03-08T06:20:26;99127.48;;;4.95;100.00
64628;BME280;68467;50.960;0.314;2024-03-08T06:22:53;99131.38;;;4.61;100.00
64628;BME280;68467;50.960;0.314;2024-03-08T06:25:20;99132.15;;;4.66;100.00
64628;BME280;68467;50.960;0.314;2024-03-08T06:27:48;99132.64;;;5.01;100.00
64628;BME280;68467;50.960;0.314;2024-03-08T06:30:16;99133.92;;;5.77;100.00
64628;BME280;68467;50.960;0.314;2024-03-08T06:32:43;99135.70;;;4.90;100.00
64628;BME280;68467;50.960;0.314;2024-03-08T06:35:10;99140.65;;;5.08;100.00
64628;BME280;68467;50.960;0.314;2024-03-08T06:37:37;99133.45;;;4.89;100.00
64628;BME280;68467;50.960;0.314;2024-03-08T06:40:05;99133.63;;;4.85;100.00
64628;BME280;68467;50.960;0.314;2024-03-08T06:42:33;99138.21;;;5.16;100.00
64628;BME280;68467;50.960;0.314;2024-03-08T06:45:00;99139.95;;;5.23;100.00
64628;BME280;68467;50.960;0.314;2024-03-08T06:47:27;99144.26;;;4.58;100.00
64628;BME280;68467;50.960;0.314;2024-03-08T06:49:54;99141.28;;;5.08;100.00
64628;BME280;68467;50.960;0.314;2024-03-08T06:52:22;99141.82;;;5.55;100.00
64628;BME280;68467;50.960;0.314;2024-03-08T06:54:49;99147.66;;;4.33;100.00
64628;BME280;68467;50.960;0.314;2024-03-08T06:57:16;99145.64;;;5.44;100.00
64628;BME280;68467;50.960;0.314;2024-03-08T06:59:43;99138.91;;;5.74;100.00
64628;BME280;68467;50.960;0.314;2024-03-08T07:02:10;99141.13;;;5.39;100.00
64628;BME280;68467;50.960;0.314;2024-03-08T07:04:37;99141.51;;;6.02;100.00
64628;BME280;68467;50.960;0.314;2024-03-08T07:07:05;99136.89;;;5.24;100.00
64628;BME280;68467;50.960;0.314;2024-03-08T07:09:33;99140.46;;;5.17;100.00
64628;BME280;68467;50.960;0.314;2024-03-08T07:12:00;99137.13;;;5.89;100.00
64628;BME280;68467;50.960;0.314;2024-03-08T07:14:28;99143.40;;;5.16;100.00
64628;BME280;68467;50.960;0.314;2024-03-08T07:16:55;99143.62;;;4.64;100.00
64628;BME280;68467;50.960;0.314;2024-03-08T07:19:22;99143.18;;;4.84;100.00
64628;BME280;68467;50.960;0.314;2024-03-08T07:21:49;99143.35;;;4.24;100.00
64628;BME280;68467;50.960;0.314;2024-03-08T07:24:16;99145.08;;;4.84;100.00
64628;BME280;68467;50.960;0.314;2024-03-08T07:26:43;99142.99;;;4.71;100.00
64628;BME280;68467;50.960;0.314;2024-03-08T07:29:11;99142.64;;;5.05;100.00
64628;BME280;68467;50.960;0.314;2024-03-08T07:31:38;99143.26;;;5.46;100.00
64628;BME280;68467;50.960;0.314;2024-03-08T07:34:05;99139.37;;;5.27;100.00
64628;BME280;68467;50.960;0.314;2024-03-08T07:36:32;99142.87;;;4.45;100.00
64628;BME280;68467;50.960;0.314;2024-03-08T07:38:59;99139.92;;;4.94;100.00
64628;BME280;68467;50.960;0.314;2024-03-08T07:41:26;99141.15;;;5.21;100.00
64628;BME280;68467;50.960;0.314;2024-03-08T07:43:54;99135.71;;;5.62;100.00
64628;BME280;68467;50.960;0.314;2024-03-08T07:46:21;99139.68;;;5.31;100.00
64628;BME280;68467;50.960;0.314;2024-03-08T07:48:49;99136.55;;;5.45;100.00
64628;BME280;68467;50.960;0.314;2024-03-08T07:51:16;99134.16;;;6.31;100.00
64628;BME280;68467;50.960;0.314;2024-03-08T07:53:44;99127.99;;;5.60;100.00
64628;BME280;68467;50.960;0.314;2024-03-08T07:56:12;99130.79;;;4.68;100.00
64628;BME280;68467;50.960;0.314;2024-03-08T07:58:40;99125.34;;;6.22;100.00
64628;BME280;68467;50.960;0.314;2024-03-08T08:01:07;99120.90;;;5.25;100.00
64628;BME280;68467;50.960;0.314;2024-03-08T08:03:34;99123.37;;;5.00;100.00
64628;BME280;68467;50.960;0.314;2024-03-08T08:06:01;99118.09;;;5.63;100.00
64628;BME280;68467;50.960;0.314;2024-03-08T08:08:29;99119.91;;;5.23;100.00
64628;BME280;68467;50.960;0.314;2024-03-08T08:10:56;99120.22;;;5.41;100.00
64628;BME280;68467;50.960;0.314;2024-03-08T08:13:23;99120.16;;;5.61;100.00
64628;BME280;68467;50.960;0.314;2024-03-08T08:15:53;99114.86;;;6.60;100.00
64628;BME280;68467;50.960;0.314;2024-03-08T08:18:20;99112.82;;;6.15;100.00
64628;BME280;68467;50.960;0.314;2024-03-08T08:20:48;99105.49;;;6.74;100.00
64628;BME280;68467;50.960;0.314;2024-03-08T08:23:15;99106.52;;;6.69;100.00
64628;BME280;68467;50.960;0.314;2024-03-08T08:25:42;99101.10;;;6.29;100.00
64628;BME280;68467;50.960;0.314;2024-03-08T08:28:09;99093.27;;;6.30;100.00
64628;BME280;68467;50.960;0.314;2024-03-08T08:30:36;99089.67;;;6.46;100.00
64628;BME280;68467;50.960;0.314;2024-03-08T08:33:04;99089.57;;;5.69;100.00
64628;BME280;68467;50.960;0.314;2024-03-08T08:35:31;99084.20;;;6.33;100.00
64628;BME280;68467;50.960;0.314;2024-03-08T08:37:58;99086.00;;;5.67;100.00
64628;BME280;68467;50.960;0.314;2024-03-08T08:40:26;99083.61;;;6.47;100.00
64628;BME280;68467;50.960;0.314;2024-03-08T08:42:53;99083.28;;;6.54;100.00
64628;BME280;68467;50.960;0.314;2024-03-08T08:45:20;99072.45;;;6.17;100.00
64628;BME280;68467;50.960;0.314;2024-03-08T08:47:48;99070.11;;;6.92;100.00
64628;BME280;68467;50.960;0.314;2024-03-08T08:50:16;99065.64;;;7.16;100.00
64628;BME280;68467;50.960;0.314;2024-03-08T08:52:43;99069.98;;;5.85;100.00
64628;BME280;68467;50.960;0.314;2024-03-08T08:55:12;99064.33;;;7.24;100.00
64628;BME280;68467;50.960;0.314;2024-03-08T08:57:39;99066.18;;;6.98;100.00
64628;BME280;68467;50.960;0.314;2024-03-08T09:00:07;99060.12;;;8.17;100.00
64628;BME280;68467;50.960;0.314;2024-03-08T09:02:35;99056.34;;;7.66;100.00
64628;BME280;68467;50.960;0.314;2024-03-08T09:05:02;99059.98;;;6.76;100.00
64628;BME280;68467;50.960;0.314;2024-03-08T09:07:29;99051.78;;;7.77;100.00
64628;BME280;68467;50.960;0.314;2024-03-08T09:09:57;99047.69;;;7.32;100.00
64628;BME280;68467;50.960;0.314;2024-03-08T09:12:24;99048.17;;;6.84;100.00
64628;BME280;68467;50.960;0.314;2024-03-08T09:14:51;99045.09;;;6.60;100.00
64628;BME280;68467;50.960;0.314;2024-03-08T09:17:19;99035.79;;;7.34;100.00
64628;BME280;68467;50.960;0.314;2024-03-08T09:19:47;99029.34;;;6.98;100.00
64628;BME280;68467;50.960;0.314;2024-03-08T09:22:14;99029.46;;;7.42;100.00
64628;BME280;68467;50.960;0.314;2024-03-08T09:24:42;99023.81;;;8.14;100.00
64628;BME280;68467;50.960;0.314;2024-03-08T09:27:09;99017.67;;;8.05;100.00
64628;BME280;68467;50.960;0.314;2024-03-08T09:29:38;99013.64;;;8.49;100.00
64628;BME280;68467;50.960;0.314;2024-03-08T09:32:07;99009.44;;;8.21;100.00
64628;BME280;68467;50.960;0.314;2024-03-08T09:34:34;99001.57;;;7.60;100.00
64628;BME280;68467;50.960;0.314;2024-03-08T09:37:02;98995.55;;;8.82;100.00
64628;BME280;68467;50.960;0.314;2024-03-08T09:39:29;98991.60;;;8.68;100.00
64628;BME280;68467;50.960;0.314;2024-03-08T09:41:57;98984.22;;;8.19;100.00
64628;BME280;68467;50.960;0.314;2024-03-08T09:44:24;98978.15;;;8.68;100.00
64628;BME280;68467;50.960;0.314;2024-03-08T09:46:52;98978.22;;;8.09;100.00
64628;BME280;68467;50.960;0.314;2024-03-08T09:49:19;98972.50;;;8.06;100.00
64628;BME280;68467;50.960;0.314;2024-03-08T09:51:47;98959.89;;;8.59;100.00
64628;BME280;68467;50.960;0.314;2024-03-08T09:54:13;98963.75;;;8.11;100.00
64628;BME280;68467;50.960;0.314;2024-03-08T09:56:41;98950.64;;;8.01;100.00
64628;BME280;68467;50.960;0.314;2024-03-08T09:59:10;98941.90;;;7.78;100.00
64628;BME280;68467;50.960;0.314;2024-03-08T10:01:37;98936.25;;;8.62;100.00
64628;BME280;68467;50.960;0.314;2024-03-08T10:04:05;98930.31;;;8.14;100.00
64628;BME280;68467;50.960;0.314;2024-03-08T10:06:33;98926.26;;;8.58;100.00
64628;BME280;68467;50.960;0.314;2024-03-08T10:09:00;98924.96;;;8.17;100.00
64628;BME280;68467;50.960;0.314;2024-03-08T10:11:27;98920.52;;;8.85;100.00
64628;BME280;68467;50.960;0.314;2024-03-08T10:13:54;98920.37;;;8.46;100.00
64628;BME280;68467;50.960;0.314;2024-03-08T10:16:22;98915.86;;;8.61;100.00
64628;BME280;68467;50.960;0.314;2024-03-08T10:18:49;98910.11;;;8.38;100.00
64628;BME280;68467;50.960;0.314;2024-03-08T10:21:16;98908.96;;;10.13;100.00
64628;BME280;68467;50.960;0.314;2024-03-08T10:23:43;98904.76;;;8.99;100.00
64628;BME280;68467;50.960;0.314;2024-03-08T10:26:12;98901.67;;;9.68;100.00
64628;BME280;68467;50.960;0.314;2024-03-08T10:28:40;98899.18;;;9.57;100.00
64628;BME280;68467;50.960;0.314;2024-03-08T10:31:07;98902.26;;;9.34;100.00
64628;BME280;68467;50.960;0.314;2024-03-08T10:33:35;98900.57;;;9.23;100.00
64628;BME280;68467;50.960;0.314;2024-03-08T10:36:03;98903.44;;;8.78;100.00
64628;BME280;68467;50.960;0.314;2024-03-08T10:38:33;98899.29;;;8.57;100.00
64628;BME280;68467;50.960;0.314;2024-03-08T10:41:03;98895.98;;;9.33;100.00
64628;BME280;68467;50.960;0.314;2024-03-08T10:43:55;98886.99;;;8.96;100.00
64628;BME280;68467;50.960;0.314;2024-03-08T10:46:34;98880.39;;;10.45;100.00
64628;BME280;68467;50.960;0.314;2024-03-08T10:49:12;98878.71;;;9.81;100.00
64628;BME280;68467;50.960;0.314;2024-03-08T10:51:44;98869.76;;;9.32;100.00
64628;BME280;68467;50.960;0.314;2024-03-08T10:54:12;98866.79;;;10.24;100.00
64628;BME280;68467;50.960;0.314;2024-03-08T10:56:42;98862.50;;;10.64;100.00
64628;BME280;68467;50.960;0.314;2024-03-08T10:59:10;98859.37;;;10.76;100.00
64628;BME280;68467;50.960;0.314;2024-03-08T11:01:38;98855.24;;;9.65;100.00
64628;BME280;68467;50.960;0.314;2024-03-08T11:04:06;98846.56;;;10.05;100.00
64628;BME280;68467;50.960;0.314;2024-03-08T11:06:42;98848.60;;;11.04;100.00
64628;BME280;68467;50.960;0.314;2024-03-08T11:09:27;98845.83;;;9.74;100.00
64628;BME280;68467;50.960;0.314;2024-03-08T11:12:19;98846.17;;;10.41;100.00
64628;BME280;68467;50.960;0.314;2024-03-08T11:14:48;98840.15;;;9.69;100.00
64628;BME280;68467;50.960;0.314;2024-03-08T11:17:15;98845.91;;;9.59;100.00
64628;BME280;68467;50.960;0.314;2024-03-08T11:19:46;98835.73;;;9.17;100.00
64628;BME280;68467;50.960;0.314;2024-03-08T11:22:26;98837.84;;;8.59;100.00
64628;BME280;68467;50.960;0.314;2024-03-08T11:24:58;98837.23;;;9.04;100.00
64628;BME280;68467;50.960;0.314;2024-03-08T11:27:29;98825.63;;;9.03;100.00
64628;BME280;68467;50.960;0.314;2024-03-08T11:30:01;98833.00;;;8.59;100.00
64628;BME280;68467;50.960;0.314;2024-03-08T11:32:30;98831.22;;;8.03;100.00
64628;BME280;68467;50.960;0.314;2024-03-08T11:34:59;98831.63;;;9.51;100.00
64628;BME280;68467;50.960;0.314;2024-03-08T11:37:28;98823.84;;;9.71;100.00
64628;BME280;68467;50.960;0.314;2024-03-08T11:39:55;98820.59;;;9.85;100.00
64628;BME280;68467;50.960;0.314;2024-03-08T11:42:23;98819.07;;;10.36;100.00
64628;BME280;68467;50.960;0.314;2024-03-08T11:44:52;98813.19;;;9.78;100.00
64628;BME280;68467;50.960;0.314;2024-03-08T11:47:20;98814.24;;;9.17;100.00
64628;BME280;68467;50.960;0.314;2024-03-08T11:49:48;98808.12;;;9.05;100.00
64628;BME280;68467;50.960;0.314;2024-03-08T11:52:18;98802.46;;;10.10;100.00
64628;BME280;68467;50.960;0.314;2024-03-08T11:54:51;98803.04;;;10.50;100.00
64628;BME280;68467;50.960;0.314;2024-03-08T11:57:18;98797.34;;;9.71;100.00
64628;BME280;68467;50.960;0.314;2024-03-08T11:59:50;98789.08;;;10.52;100.00
64628;BME280;68467;50.960;0.314;2024-03-08T12:02:17;98787.12;;;10.82;100.00
64628;BME280;68467;50.960;0.314;2024-03-08T12:04:44;98787.98;;;10.60;100.00
64628;BME280;68467;50.960;0.314;2024-03-08T12:07:12;98780.77;;;11.73;100.00
64628;BME280;68467;50.960;0.314;2024-03-08T12:09:39;98779.59;;;11.53;100.00
64628;BME280;68467;50.960;0.314;2024-03-08T12:12:07;98763.74;;;12.12;100.00
64628;BME280;68467;50.960;0.314;2024-03-08T12:14:34;98764.67;;;11.84;100.00
64628;BME280;68467;50.960;0.314;2024-03-08T12:17:03;98757.19;;;12.14;100.00
64628;BME280;68467;50.960;0.314;2024-03-08T12:19:30;98758.10;;;12.31;100.00
64628;BME280;68467;50.960;0.314;2024-03-08T12:21:57;98748.14;;;11.71;100.00
64628;BME280;68467;50.960;0.314;2024-03-08T12:24:33;98745.44;;;11.58;100.00
64628;BME280;68467;50.960;0.314;2024-03-08T12:27:01;98749.38;;;11.24;100.00
64628;BME280;68467;50.960;0.314;2024-03-08T12:29:28;98748.84;;;11.10;100.00
64628;BME280;68467;50.960;0.314;2024-03-08T12:31:59;98738.66;;;11.63;100.00
64628;BME280;68467;50.960;0.314;2024-03-08T12:34:26;98732.25;;;11.69;100.00
64628;BME280;68467;50.960;0.314;2024-03-08T12:36:53;98734.66;;;11.00;100.00
64628;BME280;68467;50.960;0.314;2024-03-08T12:39:22;98727.41;;;11.30;100.00
64628;BME280;68467;50.960;0.314;2024-03-08T12:41:49;98728.11;;;11.63;100.00
64628;BME280;68467;50.960;0.314;2024-03-08T12:44:17;98723.61;;;11.80;100.00
64628;BME280;68467;50.960;0.314;2024-03-08T12:46:45;98724.54;;;11.46;100.00
64628;BME280;68467;50.960;0.314;2024-03-08T12:49:12;98722.33;;;12.16;100.00
64628;BME280;68467;50.960;0.314;2024-03-08T12:51:39;98714.91;;;13.24;100.00
64628;BME280;68467;50.960;0.314;2024-03-08T12:54:06;98712.36;;;12.84;100.00
64628;BME280;68467;50.960;0.314;2024-03-08T12:56:35;98709.42;;;12.47;100.00
64628;BME280;68467;50.960;0.314;2024-03-08T12:59:04;98705.43;;;12.94;100.00
64628;BME280;68467;50.960;0.314;2024-03-08T13:01:32;98707.07;;;12.28;100.00
64628;BME280;68467;50.960;0.314;2024-03-08T13:03:59;98707.65;;;12.61;100.00